createdAt,value
2023-04-07T00:00:04.819Z,99568.69
2023-04-07T00:02:54.349Z,99561.59
2023-04-07T00:05:25.420Z,99559.41
2023-04-07T00:07:57.154Z,99568.69
2023-04-07T00:10:29.152Z,99570.38
2023-04-07T00:13:06.127Z,99573.41
2023-04-07T00:15:38.272Z,99577.75
2023-04-07T00:18:09.492Z,99564.94
2023-04-07T00:20:43.477Z,99571.72
2023-04-07T00:23:13.890Z,99560.13
2023-04-07T00:25:44.681Z,99570.63
2023-04-07T00:28:20.676Z,99580.28
2023-04-07T00:30:50.322Z,99559.16
2023-04-07T00:33:18.853Z,99570.00
2023-04-07T00:35:54.446Z,99558.81
2023-04-07T00:38:25.949Z,99554.69
2023-04-07T00:41:01.412Z,99561.94
2023-04-07T00:43:35.347Z,99560.03
2023-04-07T00:46:25.539Z,99540.72
2023-04-07T00:48:59.957Z,99556.03
2023-04-07T00:51:34.740Z,99547.25
2023-04-07T00:54:11.231Z,99556.53
2023-04-07T00:56:42.552Z,99548.41
2023-04-07T00:59:12.742Z,99544.94
2023-04-07T01:01:51.684Z,99543.16
2023-04-07T01:04:29.511Z,99539.75
2023-04-07T01:07:13.476Z,99536.38
2023-04-07T01:09:48.979Z,99531.44
2023-04-07T01:12:24.270Z,99547.84
2023-04-07T01:14:59.275Z,99542.53
2023-04-07T01:17:46.804Z,99533.25
2023-04-07T01:20:22.719Z,99531.81
2023-04-07T01:23:03.385Z,99526.03
2023-04-07T01:25:51.481Z,99528.94
2023-04-07T01:28:42.283Z,99535.06
2023-04-07T01:31:25.109Z,99530.16
2023-04-07T01:34:05.215Z,99526.88
2023-04-07T01:36:40.022Z,99530.13
2023-04-07T01:39:09.023Z,99524.94
2023-04-07T01:41:47.272Z,99528.56
2023-04-07T01:44:27.664Z,99529.03
2023-04-07T01:47:00.850Z,99528.22
2023-04-07T01:49:43.082Z,99513.25
2023-04-07T01:52:11.728Z,99512.66
2023-04-07T01:54:41.285Z,99511.47
2023-04-07T01:57:10.626Z,99514.22
2023-04-07T01:59:39.627Z,99517.94
2023-04-07T02:02:11.394Z,99505.44
2023-04-07T02:04:49.911Z,99517.22
2023-04-07T02:07:22.270Z,99516.66
2023-04-07T02:09:58.492Z,99514.09
2023-04-07T02:12:30.033Z,99512.28
2023-04-07T02:15:16.740Z,99506.25
2023-04-07T02:17:54.374Z,99513.00
2023-04-07T02:20:24.784Z,99513.50
2023-04-07T02:22:59.312Z,99515.44
2023-04-07T02:25:31.646Z,99504.69
2023-04-07T02:28:02.149Z,99507.69
2023-04-07T02:30:32.724Z,99513.25
2023-04-07T02:33:11.279Z,99513.03
2023-04-07T02:35:42.166Z,99510.59
2023-04-07T02:38:11.606Z,99516.38
2023-04-07T02:40:40.526Z,99501.09
2023-04-07T02:43:12.673Z,99504.31
2023-04-07T02:45:43.955Z,99507.94
2023-04-07T02:48:31.754Z,99509.88
2023-04-07T02:51:00.894Z,99503.38
2023-04-07T02:53:32.447Z,99500.72
2023-04-07T02:56:03.248Z,99502.53
2023-04-07T02:58:32.432Z,99488.91
2023-04-07T03:01:01.706Z,99499.41
2023-04-07T03:03:35.615Z,99483.59
2023-04-07T03:06:10.495Z,99491.56
2023-04-07T03:08:50.638Z,99487.84
2023-04-07T03:11:24.903Z,99487.84
2023-04-07T03:13:56.701Z,99481.31
2023-04-07T03:16:27.671Z,99490.84
2023-04-07T03:19:18.924Z,99488.19
2023-04-07T03:21:57.467Z,99484.44
2023-04-07T03:24:32.995Z,99499.03
2023-04-07T03:27:05.341Z,99495.91
2023-04-07T03:29:54.821Z,99494.09
2023-04-07T03:32:26.973Z,99483.38
2023-04-07T03:34:57.232Z,99481.66
2023-04-07T03:37:34.130Z,99487.47
2023-04-07T03:40:05.893Z,99497.56
2023-04-07T03:42:38.110Z,99488.91
2023-04-07T03:45:20.672Z,99481.56
2023-04-07T03:47:56.333Z,99486.00
2023-04-07T03:50:29.351Z,99498.91
2023-04-07T03:53:21.077Z,99479.03
2023-04-07T03:55:52.358Z,99482.91
2023-04-07T03:58:56.761Z,99483.63
2023-04-07T04:01:56.611Z,99483.84
2023-04-07T04:04:25.989Z,99480.59
2023-04-07T04:07:04.419Z,99476.88
2023-04-07T04:09:51.981Z,99485.53
2023-04-07T04:12:33.871Z,99481.19
2023-04-07T04:15:18.347Z,99482.28
2023-04-07T04:17:49.578Z,99481.44
2023-04-07T04:20:28.619Z,99478.19
2023-04-07T04:23:02.764Z,99477.47
2023-04-07T04:25:34.510Z,99465.19
2023-04-07T04:28:10.714Z,99474.06
2023-04-07T04:30:42.640Z,99473.00
2023-04-07T04:33:12.348Z,99476.38
2023-04-07T04:36:01.594Z,99472.53
2023-04-07T04:38:33.720Z,99471.06
2023-04-07T04:41:08.414Z,99471.22
2023-04-07T04:43:39.965Z,99466.16
2023-04-07T04:46:13.068Z,99464.91
2023-04-07T04:48:48.638Z,99463.84
2023-04-07T04:51:27.172Z,99472.75
2023-04-07T04:54:07.430Z,99473.47
2023-04-07T04:56:49.377Z,99477.72
2023-04-07T04:59:26.381Z,99473.97
2023-04-07T05:02:03.304Z,99476.38
2023-04-07T05:04:36.796Z,99479.00
2023-04-07T05:07:27.191Z,99472.06
2023-04-07T05:09:57.693Z,99479.88
2023-04-07T05:12:28.785Z,99482.28
2023-04-07T05:15:05.200Z,99486.59
2023-04-07T05:17:39.994Z,99495.78
2023-04-07T05:20:24.332Z,99473.13
2023-04-07T05:22:52.839Z,99486.97
2023-04-07T05:25:28.306Z,99486.25
2023-04-07T05:28:05.787Z,99485.53
2023-04-07T05:30:36.855Z,99478.53
2023-04-07T05:33:08.897Z,99494.69
2023-04-07T05:35:57.333Z,99475.03
2023-04-07T05:38:35.946Z,99463.13
2023-04-07T05:41:17.915Z,99475.28
2023-04-07T05:43:47.609Z,99479.97
2023-04-07T05:46:20.984Z,99472.50
2023-04-07T05:48:55.821Z,99484.06
2023-04-07T05:51:26.390Z,99469.97
2023-04-07T05:53:58.044Z,99466.47
2023-04-07T05:56:32.135Z,99482.06
2023-04-07T05:59:03.720Z,99477.09
2023-04-07T06:01:40.254Z,99476.22
2023-04-07T06:04:21.880Z,99484.44
2023-04-07T06:07:05.091Z,99476.84
2023-04-07T06:09:42.377Z,99480.84
2023-04-07T06:12:16.301Z,99480.44
2023-04-07T06:14:51.148Z,99475.25
2023-04-07T06:17:20.147Z,99481.63
2023-04-07T06:19:50.056Z,99488.19
2023-04-07T06:22:26.961Z,99484.53
2023-04-07T06:24:55.802Z,99492.13
2023-04-07T06:27:39.601Z,99489.25
2023-04-07T06:30:11.579Z,99485.31
2023-04-07T06:32:41.222Z,99479.34
2023-04-07T06:35:16.740Z,99488.28
2023-04-07T06:37:48.819Z,99490.88
2023-04-07T06:40:25.940Z,99497.88
2023-04-07T06:43:02.171Z,99487.97
2023-04-07T06:45:42.224Z,99489.78
2023-04-07T06:48:13.234Z,99494.09
2023-04-07T06:50:49.260Z,99483.66
2023-04-07T06:53:20.223Z,99495.81
2023-04-07T06:55:48.766Z,99499.50
2023-04-07T06:58:25.079Z,99490.69
2023-04-07T07:00:56.032Z,99481.19
2023-04-07T07:03:27.894Z,99491.56
2023-04-07T07:05:59.971Z,99481.31
2023-04-07T07:08:31.412Z,99477.91
2023-04-07T07:11:03.178Z,99477.44
2023-04-07T07:13:43.127Z,99481.03
2023-04-07T07:16:17.010Z,99497.66
2023-04-07T07:18:47.761Z,99488.63
2023-04-07T07:21:28.470Z,99491.41
2023-04-07T07:24:05.802Z,99496.34
2023-04-07T07:26:34.963Z,99496.47
2023-04-07T07:29:08.859Z,99506.22
2023-04-07T07:31:42.005Z,99494.53
2023-04-07T07:34:11.547Z,99504.69
2023-04-07T07:36:53.156Z,99493.34
2023-04-07T07:39:24.752Z,99505.84
2023-04-07T07:41:56.636Z,99518.59
2023-04-07T07:44:33.847Z,99511.97
2023-04-07T07:47:04.573Z,99514.69
2023-04-07T07:49:44.039Z,99508.41
2023-04-07T07:52:21.639Z,99513.09
2023-04-07T07:54:54.718Z,99511.41
2023-04-07T07:57:25.028Z,99516.59
2023-04-07T07:59:56.045Z,99508.13
2023-04-07T08:02:29.941Z,99505.25
2023-04-07T08:05:01.780Z,99509.41
2023-04-07T08:07:30.788Z,99499.25
2023-04-07T08:10:01.404Z,99518.66
2023-04-07T08:12:31.431Z,99513.88
2023-04-07T08:15:05.166Z,99504.75
2023-04-07T08:17:34.147Z,99519.00
2023-04-07T08:20:05.776Z,99521.78
2023-04-07T08:22:38.745Z,99519.00
2023-04-07T08:25:10.707Z,99515.09
2023-04-07T08:27:42.282Z,99516.84
2023-04-07T08:30:18.518Z,99520.25
2023-04-07T08:32:46.930Z,99502.59
2023-04-07T08:35:27.160Z,99510.59
2023-04-07T08:37:58.659Z,99516.78
2023-04-07T08:40:35.691Z,99519.56
2023-04-07T08:43:20.457Z,99514.00
2023-04-07T08:45:53.627Z,99507.88
2023-04-07T08:48:28.890Z,99508.94
2023-04-07T08:50:58.782Z,99512.41
2023-04-07T08:53:32.968Z,99506.13
2023-04-07T08:56:03.694Z,99501.94
2023-04-07T08:58:32.986Z,99510.91
2023-04-07T09:01:06.336Z,99509.75
2023-04-07T09:03:39.709Z,99507.72
2023-04-07T09:06:07.932Z,99500.66
2023-04-07T09:08:42.012Z,99502.53
2023-04-07T09:11:18.518Z,99503.41
2023-04-07T09:13:59.309Z,99492.41
2023-04-07T09:16:31.993Z,99496.94
2023-04-07T09:19:02.826Z,99492.97
2023-04-07T09:21:56.055Z,99495.59
2023-04-07T09:24:26.958Z,99494.72
2023-04-07T09:27:16.486Z,99493.91
2023-04-07T09:29:56.629Z,99488.78
2023-04-07T09:32:42.084Z,99486.47
2023-04-07T09:35:21.606Z,99487.09
2023-04-07T09:38:15.636Z,99486.50
2023-04-07T09:40:48.621Z,99491.47
2023-04-07T09:43:21.730Z,99483.38
2023-04-07T09:45:50.862Z,99481.97
2023-04-07T09:48:21.871Z,99484.91
2023-04-07T09:50:54.219Z,99485.88
2023-04-07T09:53:30.220Z,99484.03
2023-04-07T09:56:04.314Z,99491.94
2023-04-07T09:58:43.081Z,99480.63
2023-04-07T10:01:14.662Z,99489.22
2023-04-07T10:03:52.089Z,99491.88
2023-04-07T10:06:24.670Z,99477.16
2023-04-07T10:08:56.150Z,99477.06
2023-04-07T10:11:29.289Z,99477.09
2023-04-07T10:13:58.084Z,99473.47
2023-04-07T10:16:29.853Z,99479.44
2023-04-07T10:19:01.983Z,99477.47
2023-04-07T10:21:40.160Z,99475.44
2023-04-07T10:24:22.637Z,99463.94
2023-04-07T10:26:54.751Z,99468.59
2023-04-07T10:29:23.373Z,99462.41
2023-04-07T10:31:55.078Z,99470.69
2023-04-07T10:35:01.288Z,99466.66
2023-04-07T10:37:36.696Z,99469.63
2023-04-07T10:40:36.233Z,99469.13
2023-04-07T10:43:11.631Z,99464.38
2023-04-07T10:45:54.538Z,99464.38
2023-04-07T10:48:23.429Z,99452.63
2023-04-07T10:51:28.635Z,99462.31
2023-04-07T10:54:26.789Z,99467.38
2023-04-07T10:57:10.163Z,99453.78
2023-04-07T10:59:47.604Z,99453.47
2023-04-07T11:02:42.990Z,99451.53
2023-04-07T11:05:28.545Z,99459.38
2023-04-07T11:07:59.818Z,99455.19
2023-04-07T11:10:34.517Z,99454.88
2023-04-07T11:13:11.481Z,99457.97
2023-04-07T11:15:42.870Z,99450.53
2023-04-07T11:18:23.955Z,99454.31
2023-04-07T11:20:54.475Z,99452.25
2023-04-07T11:23:25.510Z,99448.75
2023-04-07T11:26:03.123Z,99446.78
2023-04-07T11:28:32.822Z,99458.88
2023-04-07T11:31:01.237Z,99457.78
2023-04-07T11:33:31.484Z,99454.97
2023-04-07T11:36:02.388Z,99453.53
2023-04-07T11:38:38.865Z,99453.38
2023-04-07T11:41:24.569Z,99452.97
2023-04-07T11:44:10.853Z,99448.78
2023-04-07T11:46:55.172Z,99445.56
2023-04-07T11:49:24.325Z,99438.53
2023-04-07T11:52:03.170Z,99451.69
2023-04-07T11:54:44.299Z,99444.59
2023-04-07T11:57:28.210Z,99434.63
2023-04-07T12:00:11.666Z,99440.06
2023-04-07T12:02:39.949Z,99436.00
2023-04-07T12:05:11.051Z,99439.88
2023-04-07T12:07:43.103Z,99428.91
2023-04-07T12:10:27.860Z,99432.38
2023-04-07T12:13:10.992Z,99426.41
2023-04-07T12:15:45.073Z,99427.09
2023-04-07T12:18:17.596Z,99432.69
2023-04-07T12:20:55.646Z,99428.00
2023-04-07T12:23:27.347Z,99426.66
2023-04-07T12:25:57.369Z,99419.19
2023-04-07T12:28:38.845Z,99421.13
2023-04-07T12:31:07.159Z,99423.19
2023-04-07T12:33:41.093Z,99416.06
2023-04-07T12:36:09.656Z,99419.97
2023-04-07T12:38:39.020Z,99415.44
2023-04-07T12:41:08.003Z,99417.75
2023-04-07T12:43:37.694Z,99426.19
2023-04-07T12:46:05.758Z,99423.09
2023-04-07T12:48:45.099Z,99428.25
2023-04-07T12:51:13.262Z,99422.88
2023-04-07T12:53:45.148Z,99419.19
2023-04-07T12:56:21.350Z,99424.19
2023-04-07T12:58:54.553Z,99425.41
2023-04-07T13:01:23.694Z,99414.59
2023-04-07T13:03:53.895Z,99420.88
2023-04-07T13:06:23.587Z,99419.91
2023-04-07T13:08:53.399Z,99422.06
2023-04-07T13:11:22.188Z,99416.72
2023-04-07T13:14:05.605Z,99416.81
2023-04-07T13:16:35.552Z,99418.69
2023-04-07T13:19:05.972Z,99417.69
2023-04-07T13:21:46.082Z,99422.50
2023-04-07T13:24:31.048Z,99420.50
2023-04-07T13:27:01.503Z,99415.88
2023-04-07T13:29:32.167Z,99414.91
2023-04-07T13:32:06.959Z,99413.63
2023-04-07T13:34:39.520Z,99399.06
2023-04-07T13:37:08.920Z,99407.44
2023-04-07T13:39:38.352Z,99412.44
2023-04-07T13:42:12.590Z,99411.22
2023-04-07T13:44:54.654Z,99409.81
2023-04-07T13:47:25.696Z,99413.47
2023-04-07T13:49:54.865Z,99406.19
2023-04-07T13:52:25.306Z,99406.47
2023-04-07T13:54:58.137Z,99409.75
2023-04-07T13:57:28.787Z,99414.63
2023-04-07T14:00:00.219Z,99400.78
2023-04-07T14:02:32.953Z,99409.81
2023-04-07T14:05:02.359Z,99399.41
2023-04-07T14:07:33.591Z,99407.94
2023-04-07T14:10:05.255Z,99401.09
2023-04-07T14:12:34.718Z,99398.78
2023-04-07T14:15:18.523Z,99397.44
2023-04-07T14:17:47.395Z,99402.22
2023-04-07T14:20:16.964Z,99401.97
2023-04-07T14:22:49.005Z,99401.03
2023-04-07T14:25:20.342Z,99409.38
2023-04-07T14:27:59.846Z,99401.81
2023-04-07T14:30:34.374Z,99402.19
2023-04-07T14:33:05.155Z,99403.47
2023-04-07T14:35:36.972Z,99396.97
2023-04-07T14:38:05.506Z,99406.94
2023-04-07T14:40:39.511Z,99407.28
2023-04-07T14:43:10.313Z,99401.81
2023-04-07T14:45:48.287Z,99398.16
2023-04-07T14:48:27.386Z,99404.16
2023-04-07T14:51:10.265Z,99401.66
2023-04-07T14:53:47.333Z,99404.72
2023-04-07T14:56:18.459Z,99407.00
2023-04-07T14:58:55.012Z,99413.00
2023-04-07T15:01:27.186Z,99408.09
2023-04-07T15:03:56.635Z,99404.34
2023-04-07T15:06:26.461Z,99405.03
2023-04-07T15:08:55.827Z,99410.06
2023-04-07T15:11:28.591Z,99401.97
2023-04-07T15:13:57.910Z,99403.19
2023-04-07T15:16:32.424Z,99410.63
2023-04-07T15:19:01.837Z,99413.44
2023-04-07T15:21:31.034Z,99411.19
2023-04-07T15:24:09.547Z,99409.78
2023-04-07T15:26:45.793Z,99409.25
2023-04-07T15:29:17.523Z,99405.00
2023-04-07T15:31:51.540Z,99407.53
2023-04-07T15:34:21.598Z,99407.09
2023-04-07T15:36:55.650Z,99401.66
2023-04-07T15:39:25.137Z,99404.19
2023-04-07T15:41:55.844Z,99410.63
2023-04-07T15:44:30.470Z,99406.56
2023-04-07T15:47:06.065Z,99395.50
2023-04-07T15:49:37.582Z,99414.69
2023-04-07T15:52:07.732Z,99417.22
2023-04-07T15:54:38.887Z,99415.53
2023-04-07T15:57:09.736Z,99421.53
2023-04-07T15:59:40.511Z,99417.47
2023-04-07T16:02:13.001Z,99415.94
2023-04-07T16:04:44.681Z,99422.38
2023-04-07T16:07:16.644Z,99418.56
2023-04-07T16:09:47.633Z,99417.59
2023-04-07T16:12:16.846Z,99408.94
2023-04-07T16:14:50.368Z,99412.84
2023-04-07T16:17:23.203Z,99415.75
2023-04-07T16:19:52.836Z,99419.03
2023-04-07T16:22:25.565Z,99415.34
2023-04-07T16:25:02.061Z,99423.06
2023-04-07T16:27:30.212Z,99422.13
2023-04-07T16:29:59.871Z,99425.97
2023-04-07T16:32:32.369Z,99423.06
2023-04-07T16:35:01.846Z,99418.19
2023-04-07T16:37:33.465Z,99423.88
2023-04-07T16:40:12.023Z,99419.81
2023-04-07T16:42:41.430Z,99418.28
2023-04-07T16:45:14.126Z,99431.31
2023-04-07T16:47:52.382Z,99434.97
2023-04-07T16:50:24.976Z,99431.88
2023-04-07T16:52:54.897Z,99428.63
2023-04-07T16:55:26.656Z,99429.59
2023-04-07T16:57:56.269Z,99434.72
2023-04-07T17:00:27.923Z,99428.63
2023-04-07T17:03:03.175Z,99443.09
2023-04-07T17:05:39.869Z,99445.75
2023-04-07T17:08:08.508Z,99451.75
2023-04-07T17:10:40.410Z,99448.97
2023-04-07T17:13:10.808Z,99450.41
2023-04-07T17:15:40.373Z,99448.97
2023-04-07T17:18:12.977Z,99454.09
2023-04-07T17:20:44.501Z,99451.81
2023-04-07T17:23:14.764Z,99456.34
2023-04-07T17:25:44.420Z,99453.75
2023-04-07T17:28:12.826Z,99455.16
2023-04-07T17:30:50.734Z,99459.94
2023-04-07T17:33:20.438Z,99465.47
2023-04-07T17:35:50.913Z,99455.56
2023-04-07T17:38:21.822Z,99466.88
2023-04-07T17:41:01.901Z,99471.59
2023-04-07T17:43:32.989Z,99476.06
2023-04-07T17:46:02.301Z,99478.50
2023-04-07T17:48:36.250Z,99488.50
2023-04-07T17:51:05.887Z,99482.56
2023-04-07T17:53:39.677Z,99483.41
2023-04-07T17:56:15.050Z,99475.22
2023-04-07T17:58:46.224Z,99491.75
2023-04-07T18:01:17.306Z,99498.44
2023-04-07T18:03:53.139Z,99498.97
2023-04-07T18:06:24.184Z,99502.56
2023-04-07T18:09:00.630Z,99504.09
2023-04-07T18:11:30.265Z,99505.69
2023-04-07T18:14:00.860Z,99502.81
2023-04-07T18:16:30.387Z,99516.44
2023-04-07T18:19:03.003Z,99515.19
2023-04-07T18:21:32.558Z,99520.13
2023-04-07T18:24:17.279Z,99521.31
2023-04-07T18:26:58.069Z,99519.31
2023-04-07T18:29:35.071Z,99513.19
2023-04-07T18:32:05.090Z,99528.34
2023-04-07T18:34:43.888Z,99533.09
2023-04-07T18:37:14.499Z,99532.56
2023-04-07T18:39:48.694Z,99542.31
2023-04-07T18:42:20.352Z,99532.34
2023-04-07T18:44:51.132Z,99539.13
2023-04-07T18:47:25.230Z,99546.66
2023-04-07T18:50:00.502Z,99542.59
2023-04-07T18:52:34.590Z,99547.09
2023-04-07T18:55:03.088Z,99541.09
2023-04-07T18:57:32.560Z,99539.41
2023-04-07T19:00:04.162Z,99550.00
2023-04-07T19:02:47.013Z,99547.28
2023-04-07T19:05:25.155Z,99543.25
2023-04-07T19:07:56.326Z,99549.63
2023-04-07T19:10:30.894Z,99555.50
2023-04-07T19:13:09.915Z,99552.53
2023-04-07T19:15:46.121Z,99552.03
2023-04-07T19:18:28.646Z,99556.66
2023-04-07T19:21:09.557Z,99564.06
2023-04-07T19:23:50.270Z,99559.00
2023-04-07T19:26:23.356Z,99557.19
2023-04-07T19:28:54.423Z,99565.88
2023-04-07T19:31:28.712Z,99554.50
2023-04-07T19:34:00.641Z,99569.00
2023-04-07T19:36:33.378Z,99564.47
2023-04-07T19:39:08.808Z,99568.50
2023-04-07T19:42:04.171Z,99565.44
2023-04-07T19:44:38.720Z,99580.66
2023-04-07T19:47:10.406Z,99577.28
2023-04-07T19:49:39.545Z,99565.84
2023-04-07T19:52:14.692Z,99566.75
2023-04-07T19:54:52.354Z,99568.16
2023-04-07T19:57:26.426Z,99573.19
2023-04-07T20:00:04.238Z,99579.63
2023-04-07T20:02:37.219Z,99583.09
2023-04-07T20:05:07.292Z,99574.94
2023-04-07T20:07:51.258Z,99581.25
2023-04-07T20:10:22.431Z,99576.69
2023-04-07T20:12:54.211Z,99571.19
2023-04-07T20:15:27.026Z,99571.41
2023-04-07T20:17:58.525Z,99561.78
2023-04-07T20:20:35.152Z,99572.47
2023-04-07T20:23:16.665Z,99558.63
2023-04-07T20:25:47.018Z,99568.97
2023-04-07T20:28:19.695Z,99561.97
2023-04-07T20:30:49.120Z,99547.34
2023-04-07T20:33:18.145Z,99557.97
2023-04-07T20:35:47.696Z,99564.09
2023-04-07T20:38:21.276Z,99563.34
2023-04-07T20:40:57.870Z,99572.56
2023-04-07T20:43:27.625Z,99562.84
2023-04-07T20:45:56.204Z,99575.41
2023-04-07T20:48:27.295Z,99573.13
2023-04-07T20:51:05.720Z,99575.25
2023-04-07T20:53:37.645Z,99573.78
2023-04-07T20:56:08.361Z,99572.34
2023-04-07T20:58:39.485Z,99567.75
2023-04-07T21:01:09.380Z,99568.72
2023-04-07T21:03:42.276Z,99559.00
2023-04-07T21:06:11.483Z,99564.50
2023-04-07T21:08:41.676Z,99569.94
2023-04-07T21:11:11.689Z,99567.09
2023-04-07T21:13:41.200Z,99564.09
2023-04-07T21:16:11.070Z,99560.38
2023-04-07T21:18:39.885Z,99566.13
2023-04-07T21:21:09.158Z,99553.47
2023-04-07T21:23:41.634Z,99557.34
2023-04-07T21:26:22.029Z,99557.06
2023-04-07T21:28:59.529Z,99549.88
2023-04-07T21:31:31.327Z,99549.63
2023-04-07T21:34:00.430Z,99545.50
2023-04-07T21:36:33.642Z,99544.81
2023-04-07T21:39:05.558Z,99553.09
2023-04-07T21:41:44.200Z,99552.56
2023-04-07T21:44:20.083Z,99544.97
2023-04-07T21:46:50.880Z,99547.41
2023-04-07T21:49:29.016Z,99551.53
2023-04-07T21:52:00.974Z,99545.84
2023-04-07T21:54:30.098Z,99550.25
2023-04-07T21:57:06.874Z,99542.03
2023-04-07T21:59:46.324Z,99544.47
2023-04-07T22:02:17.603Z,99550.69
2023-04-07T22:04:45.921Z,99553.06
2023-04-07T22:07:15.500Z,99550.56
2023-04-07T22:09:46.244Z,99543.41
2023-04-07T22:12:24.153Z,99550.81
2023-04-07T22:14:53.978Z,99543.91
2023-04-07T22:17:26.787Z,99541.56
2023-04-07T22:19:57.257Z,99552.13
2023-04-07T22:22:28.776Z,99555.34
2023-04-07T22:24:57.965Z,99552.47
2023-04-07T22:27:41.284Z,99556.56
2023-04-07T22:30:15.371Z,99564.19
2023-04-07T22:32:46.193Z,99554.22
2023-04-07T22:35:17.042Z,99552.50
2023-04-07T22:37:48.398Z,99554.09
2023-04-07T22:40:19.306Z,99555.44
2023-04-07T22:42:56.877Z,99553.84
2023-04-07T22:45:28.305Z,99557.81
2023-04-07T22:47:59.159Z,99559.16
2023-04-07T22:50:28.536Z,99561.81
2023-04-07T22:52:59.626Z,99563.97
2023-04-07T22:55:29.482Z,99572.41
2023-04-07T22:58:04.242Z,99560.25
2023-04-07T23:00:36.289Z,99573.41
2023-04-07T23:03:06.297Z,99558.56
2023-04-07T23:05:35.181Z,99563.75
2023-04-07T23:08:05.328Z,99568.34
2023-04-07T23:10:38.317Z,99561.47
2023-04-07T23:13:22.088Z,99573.53
2023-04-07T23:15:53.244Z,99567.88
2023-04-07T23:18:22.574Z,99562.56
2023-04-07T23:20:53.434Z,99562.44
2023-04-07T23:23:24.192Z,99569.06
2023-04-07T23:25:52.875Z,99567.63
2023-04-07T23:28:29.000Z,99568.13
2023-04-07T23:31:05.834Z,99568.59
2023-04-07T23:33:35.509Z,99567.97
2023-04-07T23:36:04.820Z,99573.06
2023-04-07T23:38:37.047Z,99562.31
2023-04-07T23:41:08.592Z,99566.66
2023-04-07T23:43:54.059Z,99566.41
2023-04-07T23:46:28.267Z,99566.66
2023-04-07T23:48:59.113Z,99571.22
2023-04-07T23:51:28.294Z,99565.56
2023-04-07T23:53:58.116Z,99574.69
2023-04-07T23:56:29.881Z,99574.81
2023-04-07T23:59:07.423Z,99586.44
